Time;durP1;ratioP1;P1;durP2;ratioP2;P2;SDS_P1;SDS_P2;PMS_P1;PMS_P2;Temp;Humidity;BMP_temperature;BMP_pressure;BME280_temperature;BME280_humidity;BME280_pressure;Samples;Min_cycle;Max_cycle;Signal;HPM_P1;HPM_P2
2022/08/19 00:03:06;;;;;;;12.13;11.00;;;;;;;;;;9953246;28;20042;-60
2022/08/19 00:08:00;;;;;;;10.85;9.88;;;;;;;;;;9954628;28;20109;-60
2022/08/19 00:12:54;;;;;;;11.02;9.93;;;;;;;;;;9953111;28;20059;-60
2022/08/19 00:17:48;;;;;;;10.77;9.88;;;;;;;;;;9952636;28;20556;-59
2022/08/19 00:22:42;;;;;;;12.02;10.88;;;;;;;;;;9941291;28;20129;-60
2022/08/19 00:27:36;;;;;;;13.38;10.68;;;;;;;;;;9952227;28;20050;-60
2022/08/19 00:32:29;;;;;;;11.75;10.65;;;;;;;;;;9940135;28;20397;-60
2022/08/19 00:37:25;;;;;;;11.73;10.48;;;;;;;;;;9952163;28;20046;-60
2022/08/19 00:42:21;;;;;;;11.80;10.75;;;;;;;;;;9947797;28;20501;-60
2022/08/19 00:47:15;;;;;;;12.75;11.65;;;;;;;;;;9952530;28;20062;-60
2022/08/19 00:52:15;;;;;;;12.77;11.68;;;;;;;;;;9945983;28;20413;-60
2022/08/19 00:57:12;;;;;;;13.88;12.05;;;;;;;;;;9947850;28;20098;-60
2022/08/19 01:02:08;;;;;;;21.40;12.68;;;;;;;;;;9927196;28;20070;-60
2022/08/19 01:07:04;;;;;;;15.20;13.27;;;;;;;;;;9948446;28;20065;-60
2022/08/19 01:12:08;;;;;;;13.07;11.98;;;;;;;;;;9949918;28;20059;-60
2022/08/19 01:17:02;;;;;;;14.50;13.00;;;;;;;;;;9933779;28;20054;-60
2022/08/19 01:22:03;;;;;;;15.88;13.45;;;;;;;;;;9950990;28;20051;-60
2022/08/19 01:27:07;;;;;;;18.95;14.70;;;;;;;;;;9951266;28;20058;-61
2022/08/19 01:32:03;;;;;;;13.57;12.40;;;;;;;;;;9950596;28;20196;-60
2022/08/19 01:36:57;;;;;;;17.23;10.38;;;;;;;;;;9950236;28;20050;-60
2022/08/19 01:41:54;;;;;;;15.10;10.35;;;;;;;;;;9948243;28;20413;-60
2022/08/19 01:46:49;;;;;;;12.38;9.27;;;;;;;;;;9943599;28;20098;-61
2022/08/19 01:51:42;;;;;;;9.35;8.45;;;;;;;;;;9949582;28;20056;-61
2022/08/19 01:56:36;;;;;;;10.55;9.55;;;;;;;;;;9949308;28;20074;-60
2022/08/19 02:01:34;;;;;;;18.02;11.43;;;;;;;;;;9945941;28;20142;-60
2022/08/19 02:06:28;;;;;;;17.87;12.40;;;;;;;;;;9949304;28;20065;-60
2022/08/19 02:11:27;;;;;;;13.70;12.27;;;;;;;;;;9948963;28;20138;-60
2022/08/19 02:16:20;;;;;;;12.45;11.10;;;;;;;;;;9949232;28;20055;-60
2022/08/19 02:21:16;;;;;;;13.98;12.45;;;;;;;;;;9948924;28;20062;-60
2022/08/19 02:26:12;;;;;;;17.35;15.40;;;;;;;;;;9939265;28;20047;-60
2022/08/19 02:31:10;;;;;;;12.98;11.65;;;;;;;;;;9946585;28;20072;-60
2022/08/19 02:36:06;;;;;;;9.73;8.77;;;;;;;;;;9948178;28;20054;-61
2022/08/19 02:41:07;;;;;;;9.77;5.30;;;;;;;;;;9949235;28;20062;-62
2022/08/19 02:46:01;;;;;;;5.65;3.17;;;;;;;;;;9948457;28;20135;-61
2022/08/19 02:50:55;;;;;;;6.35;4.20;;;;;;;;;;9948278;28;20059;-61
2022/08/19 02:55:50;;;;;;;4.90;3.70;;;;;;;;;;9947942;28;20065;-61
2022/08/19 03:00:49;;;;;;;4.38;2.65;;;;;;;;;;9941685;28;20055;-61
2022/08/19 03:05:43;;;;;;;5.75;2.20;;;;;;;;;;9947919;28;20413;-61
2022/08/19 03:10:49;;;;;;;10.18;4.15;;;;;;;;;;9942826;28;20558;-61
2022/08/19 03:15:47;;;;;;;10.10;3.03;;;;;;;;;;9948083;28;20035;-61
2022/08/19 03:20:47;;;;;;;5.68;3.03;;;;;;;;;;9948259;28;20510;-61
2022/08/19 03:25:45;;;;;;;10.13;3.00;;;;;;;;;;9938477;28;20058;-61
2022/08/19 03:30:59;;;;;;;8.02;2.80;;;;;;;;;;9947997;28;20067;-61
2022/08/19 03:36:03;;;;;;;3.85;2.38;;;;;;;;;;9954396;28;20506;-61
2022/08/19 03:40:58;;;;;;;4.32;2.58;;;;;;;;;;9960543;28;20391;-61
2022/08/19 03:46:04;;;;;;;10.32;3.50;;;;;;;;;;9980163;28;20578;-61
2022/08/19 03:50:59;;;;;;;6.50;3.58;;;;;;;;;;9969000;28;20133;-61
2022/08/19 03:55:53;;;;;;;4.70;2.45;;;;;;;;;;9964605;28;20105;-61
2022/08/19 04:00:46;;;;;;;6.38;2.53;;;;;;;;;;9971360;28;20078;-61
2022/08/19 04:05:40;;;;;;;4.68;2.80;;;;;;;;;;9943590;28;20051;-61
2022/08/19 04:10:37;;;;;;;14.20;5.10;;;;;;;;;;9970392;28;20059;-61
2022/08/19 04:15:38;;;;;;;4.72;4.00;;;;;;;;;;9956395;28;20042;-61
2022/08/19 04:20:33;;;;;;;4.78;3.70;;;;;;;;;;9974769;28;20096;-61
2022/08/19 04:25:27;;;;;;;5.70;3.92;;;;;;;;;;9938164;28;20655;-60
2022/08/19 04:30:22;;;;;;;7.68;4.05;;;;;;;;;;9946168;28;20417;-60
2022/08/19 04:35:16;;;;;;;8.60;5.90;;;;;;;;;;9944364;28;20043;-61
2022/08/19 04:45:30;;;;;;;6.35;3.72;;;;;;;;;;9948390;28;20125;-59
2022/08/19 04:50:35;;;;;;;8.32;3.97;;;;;;;;;;9949580;28;20097;-61
2022/08/19 04:55:30;;;;;;;5.95;4.15;;;;;;;;;;9947305;28;20065;-60
2022/08/19 05:00:30;;;;;;;5.57;3.72;;;;;;;;;;9948209;28;20074;-60
2022/08/19 05:05:27;;;;;;;4.57;2.60;;;;;;;;;;9944897;28;20489;-60
2022/08/19 05:10:23;;;;;;;7.80;3.60;;;;;;;;;;9945503;28;20051;-59
2022/08/19 05:15:18;;;;;;;7.85;3.45;;;;;;;;;;9945727;28;20529;-62
2022/08/19 05:25:27;;;;;;;4.10;1.70;;;;;;;;;;9946512;28;20523;-62
2022/08/19 05:30:21;;;;;;;2.53;1.10;;;;;;;;;;9929874;28;20137;-61
2022/08/19 05:35:34;;;;;;;4.03;1.50;;;;;;;;;;9948517;28;20391;-61
2022/08/19 05:40:28;;;;;;;9.23;1.60;;;;;;;;;;9942290;28;20051;-62
2022/08/19 05:45:22;;;;;;;11.55;2.20;;;;;;;;;;9942385;28;20110;-61
2022/08/19 05:50:17;;;;;;;11.52;2.50;;;;;;;;;;9947589;28;20047;-61
2022/08/19 05:55:11;;;;;;;13.00;2.20;;;;;;;;;;9948776;28;20061;-61
2022/08/19 06:00:11;;;;;;;9.13;2.85;;;;;;;;;;9945399;28;20058;-61
2022/08/19 06:05:21;;;;;;;2.35;1.50;;;;;;;;;;9924757;28;20057;-62
2022/08/19 06:10:15;;;;;;;1.55;1.10;;;;;;;;;;9943237;28;20143;-62
2022/08/19 06:15:11;;;;;;;3.42;1.25;;;;;;;;;;9948681;28;20477;-62
2022/08/19 06:20:06;;;;;;;3.50;1.00;;;;;;;;;;9948331;28;20058;-61
2022/08/19 06:25:00;;;;;;;1.05;0.80;;;;;;;;;;9948223;28;20058;-62
2022/08/19 06:29:54;;;;;;;2.38;1.05;;;;;;;;;;9948116;28;20060;-63
2022/08/19 06:34:49;;;;;;;1.42;0.80;;;;;;;;;;9948167;28;20065;-63
2022/08/19 06:39:44;;;;;;;0.93;0.80;;;;;;;;;;9945934;28;20512;-63
2022/08/19 06:44:40;;;;;;;2.20;1.08;;;;;;;;;;9948122;28;20051;-63
2022/08/19 06:49:36;;;;;;;1.40;0.70;;;;;;;;;;9942524;28;20051;-62
2022/08/19 06:54:31;;;;;;;0.90;0.80;;;;;;;;;;9940811;28;20050;-69
2022/08/19 06:59:32;;;;;;;1.83;0.70;;;;;;;;;;9944609;28;20053;-68
2022/08/19 07:04:44;;;;;;;1.40;1.30;;;;;;;;;;9952808;28;20059;-68
2022/08/19 07:09:42;;;;;;;0.70;0.70;;;;;;;;;;9949458;28;20063;-73
2022/08/19 07:14:45;;;;;;;0.70;0.70;;;;;;;;;;9946258;28;20454;-71
2022/08/19 07:19:41;;;;;;;2.55;0.90;;;;;;;;;;9953782;28;20544;-72
2022/08/19 07:24:36;;;;;;;1.95;1.08;;;;;;;;;;9954601;28;20434;-72
2022/08/19 07:29:35;;;;;;;1.03;0.93;;;;;;;;;;9954573;28;20109;-72
2022/08/19 07:34:30;;;;;;;1.02;0.98;;;;;;;;;;9946201;28;20498;-75
2022/08/19 07:39:27;;;;;;;1.73;1.00;;;;;;;;;;9939724;28;20090;-77
2022/08/19 07:44:21;;;;;;;2.13;0.88;;;;;;;;;;9948562;28;20054;-70
2022/08/19 07:49:18;;;;;;;0.60;0.60;;;;;;;;;;9953068;28;20713;-71
2022/08/19 07:54:12;;;;;;;4.30;0.80;;;;;;;;;;9953962;28;20379;-71
2022/08/19 07:59:07;;;;;;;3.65;1.17;;;;;;;;;;9942254;28;20200;-71
2022/08/19 08:09:22;;;;;;;1.15;1.08;;;;;;;;;;9941667;28;20142;-69
2022/08/19 08:14:22;;;;;;;2.33;0.75;;;;;;;;;;9950166;28;20383;-70
2022/08/19 08:19:23;;;;;;;1.00;0.75;;;;;;;;;;9952888;28;20050;-69
2022/08/19 08:24:17;;;;;;;4.30;0.77;;;;;;;;;;9952393;28;20043;-70
2022/08/19 08:29:12;;;;;;;1.25;0.70;;;;;;;;;;9951520;28;20517;-69
2022/08/19 08:34:06;;;;;;;0.98;0.70;;;;;;;;;;9949063;28;20051;-71
2022/08/19 08:39:01;;;;;;;2.25;0.80;;;;;;;;;;9945396;28;20051;-71
2022/08/19 08:43:56;;;;;;;0.77;0.70;;;;;;;;;;9942937;28;20061;-71
2022/08/19 08:49:15;;;;;;;0.95;0.85;;;;;;;;;;9951509;28;20051;-70
2022/08/19 08:54:12;;;;;;;3.15;0.70;;;;;;;;;;9948800;28;20058;-70
2022/08/19 08:59:21;;;;;;;2.63;0.60;;;;;;;;;;9938118;28;20047;-70
2022/08/19 09:04:15;;;;;;;1.50;0.57;;;;;;;;;;9946862;28;20065;-70
2022/08/19 09:09:09;;;;;;;1.38;0.60;;;;;;;;;;9950970;28;20046;-70
2022/08/19 09:14:09;;;;;;;2.05;0.50;;;;;;;;;;9948317;28;20050;-69
2022/08/19 09:19:23;;;;;;;1.80;0.60;;;;;;;;;;9939017;28;20047;-70
2022/08/19 09:24:17;;;;;;;3.47;0.50;;;;;;;;;;9943834;28;20517;-67
2022/08/19 09:29:14;;;;;;;1.47;0.43;;;;;;;;;;9941328;28;20521;-71
2022/08/19 09:34:09;;;;;;;1.67;0.73;;;;;;;;;;9939655;28;20046;-70
2022/08/19 09:39:14;;;;;;;3.42;0.50;;;;;;;;;;9940088;28;20127;-69
2022/08/19 09:44:07;;;;;;;1.30;0.82;;;;;;;;;;9944387;28;20074;-69
2022/08/19 09:49:05;;;;;;;1.75;0.82;;;;;;;;;;9943101;28;20059;-68
2022/08/19 09:54:03;;;;;;;0.52;0.40;;;;;;;;;;9941801;28;20513;-69
2022/08/19 09:59:00;;;;;;;1.30;0.60;;;;;;;;;;9935107;28;20058;-68
2022/08/19 10:03:55;;;;;;;5.07;1.00;;;;;;;;;;9940660;28;20489;-66
2022/08/19 10:08:51;;;;;;;3.63;0.75;;;;;;;;;;9941742;28;20504;-70
2022/08/19 10:13:45;;;;;;;1.70;0.80;;;;;;;;;;9940435;28;20053;-70
2022/08/19 10:18:42;;;;;;;2.75;0.60;;;;;;;;;;9941340;28;20480;-70
2022/08/19 10:23:44;;;;;;;0.82;0.70;;;;;;;;;;9943016;28;20590;-69
2022/08/19 10:28:38;;;;;;;1.98;0.50;;;;;;;;;;9940399;28;20055;-67
2022/08/19 10:33:35;;;;;;;2.38;1.38;;;;;;;;;;9940206;28;20146;-69
2022/08/19 10:38:49;;;;;;;1.17;0.60;;;;;;;;;;9935037;28;20062;-70
2022/08/19 10:43:52;;;;;;;1.30;1.08;;;;;;;;;;9947496;28;20118;-71
2022/08/19 10:48:45;;;;;;;3.60;0.50;;;;;;;;;;9931071;28;20055;-71
2022/08/19 10:53:42;;;;;;;1.90;0.53;;;;;;;;;;9943698;28;20306;-69
2022/08/19 10:58:37;;;;;;;0.82;0.40;;;;;;;;;;9946916;28;20069;-72
2022/08/19 11:03:31;;;;;;;1.58;0.47;;;;;;;;;;9944440;28;20055;-72
2022/08/19 11:08:26;;;;;;;2.80;0.60;;;;;;;;;;9947277;28;20051;-74
2022/08/19 11:13:22;;;;;;;0.73;0.30;;;;;;;;;;9947458;28;20046;-73
2022/08/19 11:18:17;;;;;;;1.10;0.73;;;;;;;;;;9949403;28;20502;-74
2022/08/19 11:23:10;;;;;;;1.83;0.30;;;;;;;;;;9950225;28;20122;-74
2022/08/19 11:28:04;;;;;;;0.88;0.40;;;;;;;;;;9947283;28;20127;-71
2022/08/19 11:33:00;;;;;;;3.80;1.60;;;;;;;;;;9950176;28;20468;-71
2022/08/19 11:37:55;;;;;;;0.57;0.47;;;;;;;;;;9951729;28;20516;-69
2022/08/19 11:42:56;;;;;;;0.82;0.47;;;;;;;;;;9950848;28;20067;-69
2022/08/19 11:47:51;;;;;;;0.73;0.38;;;;;;;;;;9942106;28;20521;-68
2022/08/19 11:52:45;;;;;;;1.00;0.40;;;;;;;;;;9946320;28;20446;-70
2022/08/19 11:57:40;;;;;;;0.30;0.30;;;;;;;;;;9945502;28;20497;-75
2022/08/19 12:02:35;;;;;;;1.45;0.60;;;;;;;;;;9948371;28;20121;-74
2022/08/19 12:07:32;;;;;;;0.35;0.30;;;;;;;;;;9945742;28;20062;-75
2022/08/19 12:12:26;;;;;;;0.55;0.40;;;;;;;;;;9946748;28;20113;-69
2022/08/19 12:17:20;;;;;;;1.73;0.50;;;;;;;;;;9945533;28;20073;-70
2022/08/19 12:22:14;;;;;;;0.40;0.40;;;;;;;;;;9948436;28;20438;-71
2022/08/19 12:27:08;;;;;;;2.88;0.47;;;;;;;;;;9943119;28;20046;-66
2022/08/19 12:32:05;;;;;;;0.80;0.38;;;;;;;;;;9942090;28;20069;-67
2022/08/19 12:37:03;;;;;;;;;;;;;;;;;;9943786;28;20439;-67
2022/08/19 12:41:57;;;;;;;0.30;0.30;;;;;;;;;;9943030;28;19938;-69
2022/08/19 12:46:52;;;;;;;0.60;0.40;;;;;;;;;;9949233;28;20043;-68
2022/08/19 12:51:46;;;;;;;1.65;0.75;;;;;;;;;;9947002;28;20054;-68
2022/08/19 12:56:40;;;;;;;2.30;0.52;;;;;;;;;;9949101;28;20058;-68
2022/08/19 13:01:35;;;;;;;0.65;0.50;;;;;;;;;;9947890;28;20050;-67
2022/08/19 13:06:29;;;;;;;1.70;0.50;;;;;;;;;;9944572;28;20494;-66
2022/08/19 13:11:25;;;;;;;0.90;0.38;;;;;;;;;;9945829;28;20051;-68
2022/08/19 13:16:20;;;;;;;1.90;0.30;;;;;;;;;;9949247;28;20042;-67
2022/08/19 13:21:14;;;;;;;0.95;0.40;;;;;;;;;;9941017;28;20047;-67
2022/08/19 13:26:09;;;;;;;1.25;0.43;;;;;;;;;;9943416;28;20051;-63
2022/08/19 13:36:16;;;;;;;0.77;0.50;;;;;;;;;;9944834;28;20089;-66
2022/08/19 13:41:09;;;;;;;2.00;0.63;;;;;;;;;;9945691;28;20129;-66
2022/08/19 13:46:12;;;;;;;2.53;0.40;;;;;;;;;;9943538;28;20061;-67
2022/08/19 13:51:09;;;;;;;0.28;0.28;;;;;;;;;;9945814;28;20058;-67
2022/08/19 13:56:10;;;;;;;2.05;0.30;;;;;;;;;;9937990;28;20494;-71
2022/08/19 14:01:05;;;;;;;2.70;0.50;;;;;;;;;;9941978;28;20050;-65
2022/08/19 14:05:58;;;;;;;0.30;0.30;;;;;;;;;;9926272;28;20047;-69
2022/08/19 14:10:52;;;;;;;3.78;0.70;;;;;;;;;;9938162;28;20051;-68
2022/08/19 14:15:47;;;;;;;0.98;0.90;;;;;;;;;;9943440;28;20528;-65
2022/08/19 14:20:40;;;;;;;0.88;0.50;;;;;;;;;;9945639;28;20138;-64
2022/08/19 14:25:33;;;;;;;2.80;0.50;;;;;;;;;;9942156;28;20719;-65
2022/08/19 14:30:31;;;;;;;0.40;0.40;;;;;;;;;;9943837;28;20130;-63
2022/08/19 14:35:29;;;;;;;1.25;0.50;;;;;;;;;;9939064;28;20046;-64
2022/08/19 14:40:27;;;;;;;3.55;0.60;;;;;;;;;;9939135;28;20899;-64
2022/08/19 14:45:22;;;;;;;0.90;0.70;;;;;;;;;;9941044;28;20549;-64
2022/08/19 14:50:17;;;;;;;1.85;0.43;;;;;;;;;;9941717;28;20130;-63
2022/08/19 14:55:11;;;;;;;1.17;0.50;;;;;;;;;;9937733;28;20129;-64
2022/08/19 15:00:12;;;;;;;0.70;0.50;;;;;;;;;;9940901;28;20058;-62
2022/08/19 15:05:09;;;;;;;2.40;0.90;;;;;;;;;;9942377;28;20142;-61
2022/08/19 15:10:07;;;;;;;3.53;0.63;;;;;;;;;;9942035;28;20055;-60
2022/08/19 15:15:00;;;;;;;2.05;0.70;;;;;;;;;;9942575;28;20050;-61
2022/08/19 15:19:54;;;;;;;2.45;0.77;;;;;;;;;;9947604;28;20054;-60
2022/08/19 15:24:47;;;;;;;4.90;0.60;;;;;;;;;;9950300;28;20065;-59
2022/08/19 15:29:42;;;;;;;3.70;0.70;;;;;;;;;;9951846;28;20171;-61
2022/08/19 15:34:35;;;;;;;2.20;1.17;;;;;;;;;;9947064;28;20141;-62
2022/08/19 15:39:30;;;;;;;1.52;0.90;;;;;;;;;;9942450;28;20498;-61
2022/08/19 15:44:24;;;;;;;1.40;0.70;;;;;;;;;;9941328;28;20062;-61
2022/08/19 15:49:18;;;;;;;1.65;0.47;;;;;;;;;;9937367;28;20067;-61
2022/08/19 15:54:32;;;;;;;2.83;0.65;;;;;;;;;;9954925;28;20051;-61
2022/08/19 16:09:52;;;;;;;1.10;0.50;;;;;;;;;;9944791;28;20046;-62
2022/08/19 16:14:47;;;;;;;1.20;0.95;;;;;;;;;;9926608;28;20592;-62
2022/08/19 16:19:40;;;;;;;2.38;0.88;;;;;;;;;;9938370;28;20059;-62
2022/08/19 16:24:34;;;;;;;2.30;1.27;;;;;;;;;;9958907;28;20047;-62
2022/08/19 16:29:28;;;;;;;2.78;0.68;;;;;;;;;;9935684;28;20082;-61
2022/08/19 16:34:31;;;;;;;1.48;0.90;;;;;;;;;;9931774;28;20047;-61
2022/08/19 16:39:26;;;;;;;2.55;0.95;;;;;;;;;;9927480;28;20171;-61
2022/08/19 16:44:20;;;;;;;1.30;0.60;;;;;;;;;;9928790;28;20054;-59
2022/08/19 16:49:14;;;;;;;0.50;0.50;;;;;;;;;;9940744;28;20058;-65
2022/08/19 16:54:13;;;;;;;5.07;1.00;;;;;;;;;;9935092;28;20418;-66
2022/08/19 16:59:08;;;;;;;2.70;0.80;;;;;;;;;;9920998;28;20074;-63
2022/08/19 17:04:03;;;;;;;6.25;0.98;;;;;;;;;;9929079;28;20059;-59
2022/08/19 17:08:59;;;;;;;2.65;0.90;;;;;;;;;;9925695;28;20093;-64
2022/08/19 17:13:54;;;;;;;0.98;0.82;;;;;;;;;;9928674;28;20149;-62
2022/08/19 17:18:51;;;;;;;1.10;0.52;;;;;;;;;;9923139;28;20173;-67
2022/08/19 17:23:45;;;;;;;1.70;0.68;;;;;;;;;;9930527;28;20063;-63
2022/08/19 17:28:38;;;;;;;1.30;0.82;;;;;;;;;;9922703;28;20856;-61
2022/08/19 17:33:35;;;;;;;2.97;0.70;;;;;;;;;;9914105;28;20051;-61
2022/08/19 17:38:34;;;;;;;;;;;;;;;;;;9914326;28;20047;-62
2022/08/19 17:43:29;;;;;;;4.80;1.15;;;;;;;;;;9922726;28;20424;-62
2022/08/19 17:48:37;;;;;;;1.50;0.98;;;;;;;;;;9920735;28;20053;-59
2022/08/19 17:53:32;;;;;;;3.40;1.38;;;;;;;;;;9915170;28;20054;-62
2022/08/19 17:58:25;;;;;;;2.30;0.80;;;;;;;;;;9922045;28;20065;-63
2022/08/19 18:03:18;;;;;;;1.75;0.80;;;;;;;;;;9938756;28;20062;-63
2022/08/19 18:08:14;;;;;;;2.25;0.85;;;;;;;;;;9934989;28;20087;-61
2022/08/19 18:13:09;;;;;;;1.52;1.00;;;;;;;;;;9943475;28;20082;-70
2022/08/19 18:18:10;;;;;;;3.10;1.20;;;;;;;;;;9945824;28;20062;-61
2022/08/19 18:23:07;;;;;;;5.68;1.20;;;;;;;;;;9941677;28;20088;-63
2022/08/19 18:28:20;;;;;;;3.88;1.00;;;;;;;;;;9945425;28;20454;-63
2022/08/19 18:33:14;;;;;;;1.95;0.80;;;;;;;;;;9944009;28;20090;-63
2022/08/19 18:49:03;;;;;;;7.35;0.98;;;;;;;;;;9948216;28;20078;-64
2022/08/19 18:53:29;;;;;;;1.73;0.98;;;;;;;;;;9934008;28;20704;-64
2022/08/19 18:58:32;;;;;;;9.35;1.60;;;;;;;;;;9954769;28;20067;-63
2022/08/19 19:03:27;;;;;;;4.72;1.42;;;;;;;;;;9954192;28;20043;-62
2022/08/19 19:08:24;;;;;;;;;;;;;;;;;;9953519;28;20057;-61
2022/08/19 19:13:19;;;;;;;3.10;1.38;;;;;;;;;;9953455;28;19928;-62
2022/08/19 19:18:13;;;;;;;5.15;1.40;;;;;;;;;;9955651;28;20502;-62
2022/08/19 19:23:07;;;;;;;2.92;1.52;;;;;;;;;;9944277;28;20066;-62
2022/08/19 19:28:02;;;;;;;2.40;1.40;;;;;;;;;;9955513;28;20382;-62
2022/08/19 19:32:56;;;;;;;4.18;1.40;;;;;;;;;;9952897;28;20061;-62
2022/08/19 19:37:51;;;;;;;1.48;1.05;;;;;;;;;;9952003;28;20056;-64
2022/08/19 19:42:46;;;;;;;2.30;1.33;;;;;;;;;;9943076;28;20062;-62
2022/08/19 19:47:49;;;;;;;2.50;1.48;;;;;;;;;;9948325;28;20509;-63
2022/08/19 19:52:44;;;;;;;2.15;1.15;;;;;;;;;;9946385;28;20086;-61
2022/08/19 19:57:39;;;;;;;2.60;1.20;;;;;;;;;;9944606;28;20054;-63
2022/08/19 20:02:33;;;;;;;1.33;1.23;;;;;;;;;;9949340;28;20065;-63
2022/08/19 20:12:38;;;;;;;1.67;1.40;;;;;;;;;;9945942;28;20051;-62
2022/08/19 20:17:34;;;;;;;3.55;1.40;;;;;;;;;;9948681;28;20174;-62
2022/08/19 20:22:28;;;;;;;3.30;1.25;;;;;;;;;;9944666;28;20054;-61
2022/08/19 20:27:26;;;;;;;4.97;2.85;;;;;;;;;;9952490;28;20051;-63
2022/08/19 20:32:29;;;;;;;5.38;1.90;;;;;;;;;;9952186;28;21088;-62
2022/08/19 20:37:23;;;;;;;5.82;1.50;;;;;;;;;;9948690;28;20425;-62
2022/08/19 20:42:16;;;;;;;3.63;1.40;;;;;;;;;;9951991;28;20051;-63
2022/08/19 20:47:11;;;;;;;4.97;2.30;;;;;;;;;;9944687;28;20061;-62
2022/08/19 20:52:05;;;;;;;5.78;1.83;;;;;;;;;;9950526;28;20055;-63
2022/08/19 20:56:59;;;;;;;8.00;1.27;;;;;;;;;;9943234;28;20520;-60
2022/08/19 21:01:53;;;;;;;2.10;1.50;;;;;;;;;;9950590;28;20066;-63
2022/08/19 21:06:47;;;;;;;1.95;1.83;;;;;;;;;;9936090;28;20066;-61
2022/08/19 21:11:42;;;;;;;2.55;1.27;;;;;;;;;;9931139;28;20051;-62
2022/08/19 21:16:37;;;;;;;2.80;2.13;;;;;;;;;;9928866;28;20042;-61
2022/08/19 21:21:32;;;;;;;6.15;1.70;;;;;;;;;;9918209;28;20058;-60
2022/08/19 21:26:28;;;;;;;5.73;1.80;;;;;;;;;;9932918;28;20055;-60
2022/08/19 21:31:24;;;;;;;1.67;1.20;;;;;;;;;;9931343;28;20911;-61
2022/08/19 21:36:18;;;;;;;5.30;1.90;;;;;;;;;;9918638;28;20054;-59
2022/08/19 21:41:10;;;;;;;4.40;1.75;;;;;;;;;;9931596;28;20429;-60
2022/08/19 21:46:05;;;;;;;2.90;1.80;;;;;;;;;;9933459;28;20057;-60
2022/08/19 21:50:59;;;;;;;3.45;1.33;;;;;;;;;;9928723;28;20059;-60
2022/08/19 21:55:52;;;;;;;4.55;1.35;;;;;;;;;;9928181;28;20101;-60
2022/08/19 22:00:46;;;;;;;3.78;1.02;;;;;;;;;;9936433;28;20054;-61
2022/08/19 22:05:40;;;;;;;0.90;0.90;;;;;;;;;;9928705;28;20069;-65
2022/08/19 22:10:34;;;;;;;1.90;1.40;;;;;;;;;;9925373;28;20792;-64
2022/08/19 22:15:30;;;;;;;2.72;1.50;;;;;;;;;;9926508;28;20063;-64
2022/08/19 22:20:26;;;;;;;2.92;1.35;;;;;;;;;;9935010;28;20055;-63
2022/08/19 22:25:27;;;;;;;3.95;1.90;;;;;;;;;;9931568;28;20479;-64
2022/08/19 22:30:25;;;;;;;3.05;1.10;;;;;;;;;;9925011;28;20051;-64
2022/08/19 22:35:27;;;;;;;2.55;1.30;;;;;;;;;;9931820;28;20503;-66
2022/08/19 22:40:21;;;;;;;3.55;1.52;;;;;;;;;;9925251;28;20059;-66
2022/08/19 22:45:16;;;;;;;2.92;1.40;;;;;;;;;;9931434;28;20468;-66
2022/08/19 22:50:10;;;;;;;1.70;0.85;;;;;;;;;;9930367;28;20059;-65
2022/08/19 22:55:07;;;;;;;3.35;1.10;;;;;;;;;;9925358;28;20055;-65
2022/08/19 23:00:00;;;;;;;2.22;1.45;;;;;;;;;;9919396;28;20066;-65
2022/08/19 23:04:53;;;;;;;4.40;1.33;;;;;;;;;;9925415;28;20043;-66
2022/08/19 23:09:46;;;;;;;1.75;1.20;;;;;;;;;;9939462;28;20048;-66
2022/08/19 23:14:42;;;;;;;1.90;1.50;;;;;;;;;;9938651;28;20094;-66
2022/08/19 23:19:39;;;;;;;7.20;1.40;;;;;;;;;;9938115;28;20051;-64
2022/08/19 23:24:32;;;;;;;1.35;1.25;;;;;;;;;;9942549;28;20125;-64
2022/08/19 23:34:40;;;;;;;4.30;1.17;;;;;;;;;;9938885;28;20055;-63
2022/08/19 23:39:34;;;;;;;6.07;3.00;;;;;;;;;;9941937;28;20065;-65
2022/08/19 23:44:29;;;;;;;4.15;1.50;;;;;;;;;;9950491;28;20570;-65
2022/08/19 23:49:24;;;;;;;5.57;1.40;;;;;;;;;;9949715;28;20057;-64
2022/08/19 23:54:17;;;;;;;5.63;1.95;;;;;;;;;;9947721;28;20054;-65
2022/08/19 23:59:11;;;;;;;1.58;1.00;;;;;;;;;;9946351;28;20056;-65
